createdAt,value
2019-03-27T00:00:54.861Z,20.43
2019-03-27T00:01:54.888Z,20.43
2019-03-27T00:02:54.824Z,20.41
2019-03-27T00:03:54.805Z,20.41
2019-03-27T00:04:54.791Z,20.41
2019-03-27T00:05:54.814Z,20.43
2019-03-27T00:06:54.778Z,20.41
2019-03-27T00:07:54.754Z,20.41
2019-03-27T00:08:54.751Z,20.40
2019-03-27T00:09:54.740Z,20.41
2019-03-27T00:10:54.757Z,20.40
2019-03-27T00:11:54.720Z,20.41
2019-03-27T00:12:54.706Z,20.40
2019-03-27T00:13:54.694Z,20.40
2019-03-27T00:14:54.684Z,20.40
2019-03-27T00:15:54.718Z,20.41
2019-03-27T00:16:54.659Z,20.41
2019-03-27T00:17:54.656Z,20.39
2019-03-27T00:18:54.637Z,20.40
2019-03-27T00:19:54.669Z,20.39
2019-03-27T00:20:54.619Z,20.39
2019-03-27T00:21:54.603Z,20.39
2019-03-27T00:22:54.601Z,20.39
2019-03-27T00:23:54.585Z,20.40
2019-03-27T00:24:54.620Z,20.40
2019-03-27T00:25:54.574Z,20.40
2019-03-27T00:26:54.550Z,20.40
2019-03-27T00:27:54.541Z,20.39
2019-03-27T00:28:54.530Z,20.39
2019-03-27T00:29:54.552Z,20.37
2019-03-27T00:30:54.536Z,20.39
2019-03-27T00:31:54.496Z,20.37
2019-03-27T00:32:54.492Z,20.39
2019-03-27T00:33:54.481Z,20.39
2019-03-27T00:34:54.465Z,20.39
2019-03-27T00:35:54.492Z,20.37
2019-03-27T00:36:54.442Z,20.37
2019-03-27T00:37:54.436Z,20.36
2019-03-27T00:38:54.423Z,20.39
2019-03-27T00:39:54.473Z,20.39
2019-03-27T00:40:54.432Z,20.36
2019-03-27T00:41:54.397Z,20.37
2019-03-27T00:42:54.405Z,20.37
2019-03-27T00:43:54.368Z,20.36
2019-03-27T00:44:54.354Z,20.37
2019-03-27T00:45:54.374Z,20.37
2019-03-27T00:46:54.337Z,20.37
2019-03-27T00:47:54.324Z,20.37
2019-03-27T00:48:54.337Z,20.37
2019-03-27T00:49:54.304Z,20.37
2019-03-27T00:50:54.334Z,20.37
2019-03-27T00:51:54.283Z,20.37
2019-03-27T00:52:54.269Z,20.37
2019-03-27T00:53:54.258Z,20.37
2019-03-27T00:54:54.247Z,20.36
2019-03-27T00:55:54.272Z,20.36
2019-03-27T00:56:54.227Z,20.37
2019-03-27T00:57:54.216Z,20.36
2019-03-27T00:58:54.237Z,20.36
2019-03-27T00:59:54.197Z,20.36
2019-03-27T01:00:54.182Z,20.37
2019-03-27T01:01:54.181Z,20.36
2019-03-27T01:02:54.196Z,20.36
2019-03-27T01:03:54.152Z,20.36
2019-03-27T01:04:54.146Z,20.36
2019-03-27T01:05:54.133Z,20.36
2019-03-27T01:06:54.156Z,20.34
2019-03-27T01:07:54.112Z,20.36
2019-03-27T01:08:54.154Z,20.36
2019-03-27T01:09:54.085Z,20.36
2019-03-27T01:10:54.082Z,20.36
2019-03-27T01:11:54.082Z,20.36
2019-03-27T01:12:54.055Z,20.34
2019-03-27T01:13:54.075Z,20.36
2019-03-27T01:14:54.030Z,20.36
2019-03-27T01:15:54.022Z,20.36
2019-03-27T01:16:54.009Z,20.36
2019-03-27T01:17:53.999Z,20.36
2019-03-27T01:18:54.026Z,20.34
2019-03-27T01:19:53.986Z,20.36
2019-03-27T01:20:53.973Z,20.34
2019-03-27T01:21:53.980Z,20.36
2019-03-27T01:22:53.975Z,20.34
2019-03-27T01:23:53.936Z,20.34
2019-03-27T01:24:53.960Z,20.34
2019-03-27T01:25:53.914Z,20.37
2019-03-27T01:26:53.903Z,20.34
2019-03-27T01:27:53.893Z,20.34
2019-03-27T01:28:53.920Z,20.34
2019-03-27T01:29:53.872Z,20.34
2019-03-27T01:30:53.860Z,20.34
2019-03-27T01:31:53.852Z,20.34
2019-03-27T01:32:53.838Z,20.34
2019-03-27T01:33:53.865Z,20.34
2019-03-27T01:34:53.825Z,20.36
2019-03-27T01:35:53.811Z,20.36
2019-03-27T01:36:53.795Z,20.34
2019-03-27T01:37:53.784Z,20.34
2019-03-27T01:38:53.815Z,20.34
2019-03-27T01:39:53.760Z,20.34
2019-03-27T01:40:53.751Z,20.34
2019-03-27T01:41:53.744Z,20.34
2019-03-27T01:42:53.728Z,20.34
2019-03-27T01:43:53.791Z,20.34
2019-03-27T01:44:53.721Z,20.36
2019-03-27T01:45:53.730Z,20.34
2019-03-27T01:46:53.690Z,20.34
2019-03-27T01:47:53.674Z,20.34
2019-03-27T01:48:53.670Z,20.32
2019-03-27T01:49:53.684Z,20.32
2019-03-27T01:50:53.648Z,20.34
2019-03-27T01:51:53.637Z,20.34
2019-03-27T01:52:53.623Z,20.36
2019-03-27T01:53:53.640Z,20.32
2019-03-27T01:54:53.638Z,20.34
2019-03-27T01:55:53.591Z,20.32
2019-03-27T01:56:53.582Z,20.34
2019-03-27T01:57:53.567Z,20.32
2019-03-27T01:58:53.554Z,20.34
2019-03-27T01:59:53.574Z,20.34
2019-03-27T02:00:53.536Z,20.32
2019-03-27T02:01:53.527Z,20.34
2019-03-27T02:02:53.516Z,20.32
2019-03-27T02:03:53.505Z,20.32
2019-03-27T02:04:53.520Z,20.34
2019-03-27T02:05:53.507Z,20.34
2019-03-27T02:06:53.472Z,20.34
2019-03-27T02:07:53.464Z,20.34
2019-03-27T02:08:53.445Z,20.32
2019-03-27T02:09:53.462Z,20.32
2019-03-27T02:10:53.421Z,20.31
2019-03-27T02:11:53.452Z,20.32
2019-03-27T02:12:53.403Z,20.34
2019-03-27T02:13:53.398Z,20.32
2019-03-27T02:14:53.384Z,20.32
2019-03-27T02:16:05.877Z,20.32
2019-03-27T02:16:54.395Z,20.32
2019-03-27T02:17:53.349Z,20.32
2019-03-27T02:18:53.339Z,20.32
2019-03-27T02:19:53.330Z,20.32
2019-03-27T02:20:53.372Z,20.32
2019-03-27T02:21:53.309Z,20.31
2019-03-27T02:22:53.294Z,20.32
2019-03-27T02:23:53.350Z,20.31
2019-03-27T02:24:53.276Z,20.32
2019-03-27T02:25:53.311Z,20.31
2019-03-27T02:26:53.257Z,20.31
2019-03-27T02:27:53.245Z,20.31
2019-03-27T02:28:53.231Z,20.31
2019-03-27T02:29:53.217Z,20.31
2019-03-27T02:30:53.251Z,20.32
2019-03-27T02:31:53.241Z,20.29
2019-03-27T02:32:53.199Z,20.31
2019-03-27T02:33:53.185Z,20.32
2019-03-27T02:34:53.169Z,20.31
2019-03-27T02:35:53.161Z,20.31
2019-03-27T02:36:53.190Z,20.31
2019-03-27T02:37:53.174Z,20.31
2019-03-27T02:38:53.125Z,20.29
2019-03-27T02:39:53.116Z,20.31
2019-03-27T02:40:53.100Z,20.31
2019-03-27T02:41:53.091Z,20.29
2019-03-27T02:42:53.111Z,20.31
2019-03-27T02:43:53.066Z,20.32
2019-03-27T02:44:53.054Z,20.29
2019-03-27T02:45:53.044Z,20.29
2019-03-27T02:46:53.033Z,20.31
2019-03-27T02:47:53.069Z,20.29
2019-03-27T02:48:53.015Z,20.31
2019-03-27T02:49:53.006Z,20.31
2019-03-27T02:50:52.996Z,20.29
2019-03-27T02:51:52.985Z,20.29
2019-03-27T02:52:53.009Z,20.31
2019-03-27T02:53:52.989Z,20.31
2019-03-27T02:54:52.948Z,20.31
2019-03-27T02:55:52.960Z,20.31
2019-03-27T02:56:52.925Z,20.29
2019-03-27T02:57:52.960Z,20.29
2019-03-27T02:58:52.941Z,20.29
2019-03-27T02:59:52.896Z,20.31
2019-03-27T03:00:52.882Z,20.28
2019-03-27T03:01:52.871Z,20.31
2019-03-27T03:02:52.862Z,20.28
2019-03-27T03:03:52.896Z,20.29
2019-03-27T03:04:52.847Z,20.29
2019-03-27T03:05:52.828Z,20.28
2019-03-27T03:06:52.827Z,20.31
2019-03-27T03:07:52.814Z,20.29
2019-03-27T03:08:52.827Z,20.28
2019-03-27T03:09:52.818Z,20.29
2019-03-27T03:10:52.781Z,20.28
2019-03-27T03:11:52.762Z,20.29
2019-03-27T03:12:52.749Z,20.28
2019-03-27T03:13:52.810Z,20.29
2019-03-27T03:14:52.758Z,20.28
2019-03-27T03:15:52.720Z,20.28
2019-03-27T03:16:52.721Z,20.28
2019-03-27T03:17:52.730Z,20.28
2019-03-27T03:18:52.687Z,20.28
2019-03-27T03:19:52.678Z,20.28
2019-03-27T03:20:52.666Z,20.28
2019-03-27T03:21:52.659Z,20.28
2019-03-27T03:22:52.672Z,20.28
2019-03-27T03:23:52.632Z,20.28
2019-03-27T03:24:52.636Z,20.28
2019-03-27T03:25:52.635Z,20.28
2019-03-27T03:26:52.615Z,20.28
2019-03-27T03:27:52.781Z,20.28
2019-03-27T03:28:52.597Z,20.28
2019-03-27T03:29:52.563Z,20.29
2019-03-27T03:30:52.564Z,20.28
2019-03-27T03:31:52.588Z,20.28
2019-03-27T03:32:52.555Z,20.26
2019-03-27T03:33:52.524Z,20.28
2019-03-27T03:34:52.530Z,20.28
2019-03-27T03:35:52.504Z,20.28
2019-03-27T03:36:52.539Z,20.28
2019-03-27T03:37:52.481Z,20.26
2019-03-27T03:38:52.490Z,20.28
2019-03-27T03:39:52.468Z,20.28
2019-03-27T03:40:52.528Z,20.28
2019-03-27T03:41:52.467Z,20.26
2019-03-27T03:42:52.421Z,20.28
2019-03-27T03:43:52.422Z,20.28
2019-03-27T03:44:52.432Z,20.26
2019-03-27T03:45:52.429Z,20.28
2019-03-27T03:46:59.724Z,20.28
2019-03-27T03:47:53.387Z,20.28
2019-03-27T03:48:52.360Z,20.28
2019-03-27T03:49:52.399Z,20.26
2019-03-27T03:50:52.336Z,20.28
2019-03-27T03:51:52.319Z,20.28
2019-03-27T03:52:52.318Z,20.28
2019-03-27T03:53:52.305Z,20.28
2019-03-27T03:54:52.336Z,20.26
2019-03-27T03:55:52.283Z,20.28
2019-03-27T03:56:52.278Z,20.26
2019-03-27T03:57:52.261Z,20.28
2019-03-27T03:58:52.254Z,20.26
2019-03-27T03:59:52.284Z,20.26
2019-03-27T04:00:52.226Z,20.26
2019-03-27T04:01:52.250Z,20.28
2019-03-27T04:02:52.216Z,20.28
2019-03-27T04:03:52.191Z,20.28
2019-03-27T04:04:52.193Z,20.26
2019-03-27T04:05:52.170Z,20.26
2019-03-27T04:06:52.243Z,20.28
2019-03-27T04:07:52.146Z,20.26
2019-03-27T04:08:52.134Z,20.26
2019-03-27T04:09:52.123Z,20.26
2019-03-27T04:10:52.118Z,20.26
2019-03-27T04:11:52.153Z,20.28
2019-03-27T04:12:52.110Z,20.26
2019-03-27T04:13:52.085Z,20.25
2019-03-27T04:14:52.069Z,20.26
2019-03-27T04:15:52.062Z,20.25
2019-03-27T04:16:52.070Z,20.25
2019-03-27T04:17:52.040Z,20.26
2019-03-27T04:18:52.051Z,20.26
2019-03-27T04:19:52.013Z,20.26
2019-03-27T04:20:52.008Z,20.26
2019-03-27T04:21:51.998Z,20.26
2019-03-27T04:22:52.024Z,20.26
2019-03-27T04:23:51.975Z,20.28
2019-03-27T04:24:51.961Z,20.25
2019-03-27T04:26:08.928Z,20.25
2019-03-27T04:26:52.936Z,20.25
2019-03-27T04:27:51.968Z,20.26
2019-03-27T04:28:51.917Z,20.26
2019-03-27T04:29:51.901Z,20.24
2019-03-27T04:30:51.894Z,20.26
2019-03-27T04:31:51.883Z,20.26
2019-03-27T04:32:51.911Z,20.26
2019-03-27T04:33:51.864Z,20.25
2019-03-27T04:34:51.855Z,20.25
2019-03-27T04:35:51.846Z,20.25
2019-03-27T04:36:51.831Z,20.25
2019-03-27T04:37:51.845Z,20.25
2019-03-27T04:38:51.812Z,20.25
2019-03-27T04:39:51.799Z,20.25
2019-03-27T04:40:51.780Z,20.25
2019-03-27T04:41:51.802Z,20.24
2019-03-27T04:42:51.762Z,20.25
2019-03-27T04:43:51.783Z,20.25
2019-03-27T04:44:51.738Z,20.24
2019-03-27T04:45:51.731Z,20.25
2019-03-27T04:46:51.713Z,20.24
2019-03-27T04:47:51.747Z,20.24
2019-03-27T04:48:51.694Z,20.25
2019-03-27T04:49:51.686Z,20.25
2019-03-27T04:50:51.676Z,20.24
2019-03-27T04:51:51.663Z,20.25
2019-03-27T04:52:51.688Z,20.25
2019-03-27T04:53:51.642Z,20.24
2019-03-27T04:54:51.663Z,20.25
2019-03-27T04:55:51.617Z,20.25
2019-03-27T04:56:51.612Z,20.25
2019-03-27T04:57:51.597Z,20.25
2019-03-27T04:58:51.597Z,20.25
2019-03-27T04:59:51.602Z,20.24
2019-03-27T05:00:51.559Z,20.24
2019-03-27T05:01:51.555Z,20.25
2019-03-27T05:02:51.546Z,20.24
2019-03-27T05:03:51.566Z,20.24
2019-03-27T05:04:51.551Z,20.26
2019-03-27T05:05:51.514Z,20.24
2019-03-27T05:06:51.498Z,20.24
2019-03-27T05:07:51.485Z,20.24
2019-03-27T05:08:51.489Z,20.24
2019-03-27T05:09:51.500Z,20.24
2019-03-27T05:10:51.457Z,20.24
2019-03-27T05:11:51.445Z,20.24
2019-03-27T05:12:51.428Z,20.24
2019-03-27T05:13:51.419Z,20.24
2019-03-27T05:14:51.450Z,20.24
2019-03-27T05:15:51.401Z,20.24
2019-03-27T05:16:51.413Z,20.24
2019-03-27T05:17:51.377Z,20.22
2019-03-27T05:18:51.366Z,20.24
2019-03-27T05:19:51.393Z,20.25
2019-03-27T05:20:51.345Z,20.25
2019-03-27T05:21:51.375Z,20.26
2019-03-27T05:22:51.328Z,20.26
2019-03-27T05:23:51.317Z,20.28
2019-03-27T05:24:51.302Z,20.28
2019-03-27T05:25:51.322Z,20.29
2019-03-27T05:26:51.290Z,20.28
2019-03-27T05:27:51.298Z,20.31
2019-03-27T05:28:51.260Z,20.32
2019-03-27T05:29:51.253Z,20.34
2019-03-27T05:30:51.243Z,20.37
2019-03-27T05:31:51.251Z,20.37
2019-03-27T05:32:51.250Z,20.39
2019-03-27T05:33:51.210Z,20.40
2019-03-27T05:34:51.202Z,20.41
2019-03-27T05:35:51.213Z,20.43
2019-03-27T05:36:51.179Z,20.44
2019-03-27T05:37:51.163Z,20.47
2019-03-27T05:38:51.183Z,20.48
2019-03-27T05:39:51.139Z,20.50
2019-03-27T05:40:51.130Z,20.51
2019-03-27T05:41:51.168Z,20.51
2019-03-27T05:43:00.532Z,20.52
2019-03-27T05:43:52.137Z,20.52
2019-03-27T05:44:51.103Z,20.55
2019-03-27T05:45:51.076Z,20.55
2019-03-27T05:46:51.064Z,20.56
2019-03-27T05:47:59.306Z,20.58
2019-03-27T05:48:52.072Z,20.58
2019-03-27T05:49:51.037Z,20.58
2019-03-27T05:50:51.040Z,20.56
2019-03-27T05:51:51.047Z,20.59
2019-03-27T05:52:51.002Z,20.59
2019-03-27T05:53:50.994Z,20.59
2019-03-27T05:54:50.999Z,20.59
2019-03-27T05:55:50.969Z,20.59
2019-03-27T05:56:50.992Z,20.59
2019-03-27T05:57:50.988Z,20.60
2019-03-27T05:58:50.942Z,20.60
2019-03-27T05:59:50.925Z,20.60
2019-03-27T06:00:50.922Z,20.60
2019-03-27T06:01:50.911Z,20.60
2019-03-27T06:02:50.942Z,20.60
2019-03-27T06:03:50.890Z,20.59
2019-03-27T06:04:50.873Z,20.59
2019-03-27T06:05:50.870Z,20.59
2019-03-27T06:06:50.857Z,20.59
2019-03-27T06:07:50.891Z,20.59
2019-03-27T06:08:50.865Z,20.59
2019-03-27T06:09:50.818Z,20.59
2019-03-27T06:10:50.814Z,20.58
2019-03-27T06:11:50.796Z,20.58
2019-03-27T06:12:50.792Z,20.58
2019-03-27T06:13:50.823Z,20.58
2019-03-27T06:14:50.764Z,20.56
2019-03-27T06:15:50.760Z,20.56
2019-03-27T06:16:50.745Z,20.56
2019-03-27T06:17:50.745Z,20.56
2019-03-27T06:18:50.754Z,20.55
2019-03-27T06:19:50.717Z,20.55
2019-03-27T06:20:50.732Z,20.55
2019-03-27T06:21:50.695Z,20.55
2019-03-27T06:22:50.712Z,20.55
2019-03-27T06:23:50.668Z,20.55
2019-03-27T06:24:50.664Z,20.52
2019-03-27T06:25:50.652Z,20.52
2019-03-27T06:26:50.634Z,20.51
2019-03-27T06:27:50.667Z,20.51
2019-03-27T06:28:50.615Z,20.51
2019-03-27T06:29:50.603Z,20.50
2019-03-27T06:30:50.593Z,20.51
2019-03-27T06:31:50.616Z,20.50
2019-03-27T06:32:50.579Z,20.50
2019-03-27T06:33:50.568Z,20.48
2019-03-27T06:34:50.554Z,20.48
2019-03-27T06:35:50.546Z,20.50
2019-03-27T06:36:50.568Z,20.48
2019-03-27T06:37:50.521Z,20.48
2019-03-27T06:38:50.554Z,20.47
2019-03-27T06:39:50.501Z,20.47
2019-03-27T06:40:50.517Z,20.47
2019-03-27T06:41:50.477Z,20.47
2019-03-27T06:42:50.470Z,20.47
2019-03-27T06:43:50.498Z,20.47
2019-03-27T06:44:50.453Z,20.44
2019-03-27T06:45:50.436Z,20.47
2019-03-27T06:46:50.423Z,20.44
2019-03-27T06:47:50.417Z,20.44
2019-03-27T06:48:50.452Z,20.47
2019-03-27T06:49:50.401Z,20.43
2019-03-27T06:50:50.400Z,20.47
2019-03-27T06:51:50.370Z,20.44
2019-03-27T06:52:50.370Z,20.44
2019-03-27T06:53:50.376Z,20.44
2019-03-27T06:54:50.337Z,20.44
2019-03-27T06:55:50.326Z,20.44
2019-03-27T06:56:50.320Z,20.44
2019-03-27T06:57:50.308Z,20.44
2019-03-27T06:58:54.929Z,20.44
2019-03-27T06:59:50.290Z,20.44
2019-03-27T07:00:50.278Z,20.43
2019-03-27T07:01:50.405Z,20.47
2019-03-27T07:02:50.260Z,20.47
2019-03-27T07:03:50.250Z,20.47
2019-03-27T07:04:50.234Z,20.47
2019-03-27T07:05:50.222Z,20.44
2019-03-27T07:06:50.253Z,20.44
2019-03-27T07:07:50.193Z,20.47
2019-03-27T07:08:50.186Z,20.47
2019-03-27T07:09:50.173Z,20.47
2019-03-27T07:10:50.180Z,20.47
2019-03-27T07:11:50.198Z,20.48
2019-03-27T07:12:50.146Z,20.48
2019-03-27T07:13:50.152Z,20.47
2019-03-27T07:14:50.124Z,20.47
2019-03-27T07:15:50.108Z,20.48
2019-03-27T07:16:50.135Z,20.47
2019-03-27T07:17:50.089Z,20.48
2019-03-27T07:18:50.108Z,20.47
2019-03-27T07:19:50.069Z,20.47
2019-03-27T07:20:50.053Z,20.47
2019-03-27T07:21:50.045Z,20.48
2019-03-27T07:22:50.076Z,20.48
2019-03-27T07:23:50.026Z,20.47
2019-03-27T07:24:50.005Z,20.48
2019-03-27T07:25:49.999Z,20.47
2019-03-27T07:26:50.008Z,20.48
2019-03-27T07:27:50.020Z,20.47
2019-03-27T07:28:49.966Z,20.48
2019-03-27T07:29:49.957Z,20.48
2019-03-27T07:30:49.944Z,20.48
2019-03-27T07:31:49.936Z,20.48
2019-03-27T07:32:49.957Z,20.47
2019-03-27T07:33:49.910Z,20.48
2019-03-27T07:34:49.897Z,20.50
2019-03-27T07:35:49.886Z,20.48
2019-03-27T07:36:49.897Z,20.50
2019-03-27T07:37:49.897Z,20.48
2019-03-27T07:38:49.860Z,20.50
2019-03-27T07:39:49.883Z,20.50
2019-03-27T07:40:49.834Z,20.50
2019-03-27T07:41:49.820Z,20.48
2019-03-27T07:42:49.815Z,20.48
2019-03-27T07:43:49.801Z,20.48
2019-03-27T07:44:49.828Z,20.50
2019-03-27T07:45:49.780Z,20.50
2019-03-27T07:46:49.772Z,20.48
2019-03-27T07:47:49.801Z,20.50
2019-03-27T07:48:54.181Z,20.48
2019-03-27T07:49:49.780Z,20.48
2019-03-27T07:50:49.755Z,20.50
2019-03-27T07:51:49.712Z,20.48
2019-03-27T07:52:49.705Z,20.50
2019-03-27T07:53:49.699Z,20.50
2019-03-27T07:54:49.686Z,20.48
2019-03-27T07:55:49.709Z,20.50
2019-03-27T07:56:49.665Z,20.50
2019-03-27T07:57:49.677Z,20.51
2019-03-27T07:58:49.638Z,20.50
2019-03-27T07:59:49.640Z,20.51
2019-03-27T08:00:49.615Z,20.51
2019-03-27T08:01:49.643Z,20.50
2019-03-27T08:02:49.595Z,20.52
2019-03-27T08:03:49.589Z,20.52
2019-03-27T08:04:49.613Z,20.52
2019-03-27T08:05:49.566Z,20.55
2019-03-27T08:06:49.605Z,20.52
2019-03-27T08:07:49.538Z,20.52
2019-03-27T08:08:49.531Z,20.56
2019-03-27T08:09:49.568Z,20.55
2019-03-27T08:10:49.600Z,20.55
2019-03-27T08:11:49.538Z,20.56
2019-03-27T08:12:49.495Z,20.56
2019-03-27T08:13:49.478Z,20.58
2019-03-27T08:14:49.464Z,20.58
2019-03-27T08:15:49.453Z,20.58
2019-03-27T08:16:49.487Z,20.59
2019-03-27T08:17:49.430Z,20.59
2019-03-27T08:18:49.425Z,20.59
2019-03-27T08:19:49.413Z,20.59
2019-03-27T08:20:49.394Z,20.59
2019-03-27T08:21:49.417Z,20.59
2019-03-27T08:22:49.409Z,20.60
2019-03-27T08:23:49.369Z,20.59
2019-03-27T08:24:49.389Z,20.59
2019-03-27T08:25:49.347Z,20.59
2019-03-27T08:26:49.328Z,20.60
2019-03-27T08:27:49.323Z,20.60
2019-03-27T08:28:49.311Z,20.60
2019-03-27T08:29:49.329Z,20.59
2019-03-27T08:30:49.287Z,20.59
2019-03-27T08:31:49.282Z,20.60
2019-03-27T08:32:49.302Z,20.60
2019-03-27T08:33:49.261Z,20.59
2019-03-27T08:34:49.243Z,20.60
2019-03-27T08:35:49.238Z,20.59
2019-03-27T08:36:49.229Z,20.60
2019-03-27T08:37:49.242Z,20.60
2019-03-27T08:38:49.199Z,20.59
2019-03-27T08:39:49.195Z,20.60
2019-03-27T08:40:49.183Z,20.59
2019-03-27T08:41:49.174Z,20.59
2019-03-27T08:42:49.220Z,20.58
2019-03-27T08:43:49.149Z,20.59
2019-03-27T08:44:49.138Z,20.59
2019-03-27T08:45:49.134Z,20.59
2019-03-27T08:46:49.124Z,20.59
2019-03-27T08:47:49.130Z,20.60
2019-03-27T08:48:49.094Z,20.60
2019-03-27T08:49:49.086Z,20.60
2019-03-27T08:50:49.097Z,20.58
2019-03-27T08:51:49.097Z,20.58
2019-03-27T08:52:49.053Z,20.56
2019-03-27T08:53:49.037Z,20.58
2019-03-27T08:54:49.026Z,20.58
2019-03-27T08:55:49.037Z,20.59
2019-03-27T08:56:49.036Z,20.60
2019-03-27T08:57:48.997Z,20.60
2019-03-27T08:58:48.981Z,20.62
2019-03-27T08:59:49.004Z,20.62
2019-03-27T09:00:48.972Z,20.62
2019-03-27T09:01:48.954Z,20.62
2019-03-27T09:02:48.965Z,20.62
2019-03-27T09:03:48.930Z,20.62
2019-03-27T09:04:48.917Z,20.62
2019-03-27T09:05:48.916Z,20.60
2019-03-27T09:06:48.909Z,20.62
2019-03-27T09:07:48.920Z,20.63
2019-03-27T09:08:48.906Z,20.62
2019-03-27T09:09:48.872Z,20.63
2019-03-27T09:10:48.854Z,20.62
2019-03-27T09:11:48.848Z,20.63
2019-03-27T09:12:48.866Z,20.63
2019-03-27T09:13:48.826Z,20.62
2019-03-27T09:14:48.811Z,20.63
2019-03-27T09:15:48.815Z,20.63
2019-03-27T09:16:48.784Z,20.63
2019-03-27T09:17:48.805Z,20.63
2019-03-27T09:18:48.815Z,20.63
2019-03-27T09:19:48.782Z,20.65
2019-03-27T09:20:48.742Z,20.67
2019-03-27T09:21:48.740Z,20.66
2019-03-27T09:22:48.720Z,20.66
2019-03-27T09:23:48.744Z,20.65
2019-03-27T09:24:48.702Z,20.66
2019-03-27T09:25:48.697Z,20.66
2019-03-27T09:26:48.708Z,20.66
2019-03-27T09:27:48.674Z,20.65
2019-03-27T09:28:48.657Z,20.67
2019-03-27T09:29:48.647Z,20.65
2019-03-27T09:30:48.640Z,20.66
2019-03-27T09:31:48.675Z,20.66
2019-03-27T09:32:48.614Z,20.66
2019-03-27T09:33:48.606Z,20.67
2019-03-27T09:34:48.597Z,20.67
2019-03-27T09:35:48.641Z,20.67
2019-03-27T09:36:48.608Z,20.67
2019-03-27T09:37:48.563Z,20.67
2019-03-27T09:38:48.547Z,20.67
2019-03-27T09:39:48.600Z,20.66
2019-03-27T09:40:48.528Z,20.67
2019-03-27T09:41:48.568Z,20.67
2019-03-27T09:42:48.506Z,20.66
2019-03-27T09:43:48.499Z,20.69
2019-03-27T09:44:48.491Z,20.69
2019-03-27T09:45:48.475Z,20.67
2019-03-27T09:46:48.518Z,20.67
2019-03-27T09:47:48.457Z,20.67
2019-03-27T09:48:48.440Z,20.67
2019-03-27T09:49:49.893Z,20.69
2019-03-27T09:50:48.427Z,20.66
2019-03-27T09:51:48.483Z,20.67
2019-03-27T09:52:48.399Z,20.69
2019-03-27T09:53:48.394Z,20.67
2019-03-27T09:54:48.377Z,20.67
2019-03-27T09:55:48.380Z,20.67
2019-03-27T09:56:48.402Z,20.67
2019-03-27T09:57:48.352Z,20.67
2019-03-27T09:58:48.335Z,20.67
2019-03-27T09:59:48.341Z,20.69
2019-03-27T10:00:48.432Z,20.67
2019-03-27T10:01:48.358Z,20.69
2019-03-27T10:02:48.302Z,20.69
2019-03-27T10:03:48.289Z,20.67
2019-03-27T10:04:48.340Z,20.69
2019-03-27T10:05:48.265Z,20.69
2019-03-27T10:06:48.257Z,20.67
2019-03-27T10:07:48.240Z,20.69
2019-03-27T10:08:48.232Z,20.69
2019-03-27T10:09:50.394Z,20.69
2019-03-27T10:10:48.209Z,20.69
2019-03-27T10:11:48.227Z,20.69
2019-03-27T10:12:48.190Z,20.67
2019-03-27T10:13:48.173Z,20.69
2019-03-27T10:14:48.179Z,20.70
2019-03-27T10:15:48.160Z,20.69
2019-03-27T10:16:48.180Z,20.70
2019-03-27T10:17:48.136Z,20.69
2019-03-27T10:18:48.130Z,20.69
2019-03-27T10:19:48.109Z,20.70
2019-03-27T10:20:48.135Z,20.69
2019-03-27T10:21:48.124Z,20.69
2019-03-27T10:22:48.091Z,20.69
2019-03-27T10:23:48.068Z,20.67
2019-03-27T10:24:48.130Z,20.69
2019-03-27T10:25:48.045Z,20.67
2019-03-27T10:26:48.072Z,20.69
2019-03-27T10:27:48.021Z,20.69
2019-03-27T10:28:48.015Z,20.70
2019-03-27T10:29:48.009Z,20.69
2019-03-27T10:30:48.025Z,20.70
2019-03-27T10:31:48.014Z,20.69
2019-03-27T10:32:47.968Z,20.70
2019-03-27T10:33:47.960Z,20.69
2019-03-27T10:34:47.947Z,20.69
2019-03-27T10:35:47.944Z,20.70
2019-03-27T10:36:47.963Z,20.69
2019-03-27T10:37:47.920Z,20.69
2019-03-27T10:38:47.912Z,20.70
2019-03-27T10:39:47.898Z,20.69
2019-03-27T10:40:47.883Z,20.70
2019-03-27T10:41:47.917Z,20.70
2019-03-27T10:42:47.871Z,20.69
2019-03-27T10:43:47.862Z,20.70
2019-03-27T10:44:47.840Z,20.70
2019-03-27T10:45:47.836Z,20.72
2019-03-27T10:46:47.856Z,20.72
2019-03-27T10:47:47.832Z,20.72
2019-03-27T10:48:52.861Z,20.72
2019-03-27T10:49:48.792Z,20.72
2019-03-27T10:50:47.776Z,20.72
2019-03-27T10:51:47.802Z,20.74
2019-03-27T10:52:47.758Z,20.72
2019-03-27T10:53:47.750Z,20.72
2019-03-27T10:54:47.771Z,20.74
2019-03-27T10:55:47.722Z,20.74
2019-03-27T10:56:47.741Z,20.74
2019-03-27T10:57:47.707Z,20.72
2019-03-27T10:58:47.703Z,20.72
2019-03-27T10:59:47.722Z,20.72
2019-03-27T11:00:47.680Z,20.74
2019-03-27T11:01:47.696Z,20.72
2019-03-27T11:02:47.679Z,20.74
2019-03-27T11:03:47.637Z,20.74
2019-03-27T11:04:47.635Z,20.74
2019-03-27T11:05:47.651Z,20.72
2019-03-27T11:06:47.614Z,20.75
2019-03-27T11:07:47.595Z,20.74
2019-03-27T11:08:47.596Z,20.72
2019-03-27T11:09:47.578Z,20.74
2019-03-27T11:10:47.597Z,20.70
2019-03-27T11:11:47.559Z,20.74
2019-03-27T11:12:47.540Z,20.74
2019-03-27T11:13:47.564Z,20.74
2019-03-27T11:14:47.527Z,20.72
2019-03-27T11:15:47.520Z,20.74
2019-03-27T11:16:47.498Z,20.74
2019-03-27T11:17:47.495Z,20.74
2019-03-27T11:18:47.522Z,20.74
2019-03-27T11:19:47.475Z,20.74
2019-03-27T11:20:47.461Z,20.74
2019-03-27T11:21:47.451Z,20.74
2019-03-27T11:22:47.435Z,20.74
2019-03-27T11:23:47.470Z,20.74
2019-03-27T11:24:47.413Z,20.72
2019-03-27T11:25:47.437Z,20.74
2019-03-27T11:26:47.394Z,20.74
2019-03-27T11:27:47.378Z,20.72
2019-03-27T11:28:47.395Z,20.75
2019-03-27T11:29:47.383Z,20.74
2019-03-27T11:30:48.541Z,20.72
2019-03-27T11:31:47.369Z,20.72
2019-03-27T11:32:47.323Z,20.72
2019-03-27T11:33:47.315Z,20.72
2019-03-27T11:34:47.346Z,20.74
2019-03-27T11:35:47.291Z,20.72
2019-03-27T11:36:47.286Z,20.72
2019-03-27T11:37:47.272Z,20.74
2019-03-27T11:38:47.268Z,20.74
2019-03-27T11:39:47.312Z,20.74
2019-03-27T11:40:47.243Z,20.72
2019-03-27T11:41:47.232Z,20.74
2019-03-27T11:42:47.235Z,20.74
2019-03-27T11:43:54.867Z,20.74
2019-03-27T11:44:48.234Z,20.72
2019-03-27T11:45:48.760Z,20.72
2019-03-27T11:46:47.207Z,20.74
2019-03-27T11:47:47.168Z,20.72
2019-03-27T11:48:47.156Z,20.72
2019-03-27T11:49:47.146Z,20.74
2019-03-27T11:50:47.156Z,20.72
2019-03-27T11:51:47.129Z,20.72
2019-03-27T11:52:47.132Z,20.72
2019-03-27T11:53:47.100Z,20.72
2019-03-27T11:54:47.088Z,20.70
2019-03-27T11:55:47.127Z,20.70
2019-03-27T11:56:47.073Z,20.70
2019-03-27T11:57:47.062Z,20.72
2019-03-27T11:58:47.050Z,20.70
2019-03-27T11:59:53.714Z,20.70
2019-03-27T12:00:54.603Z,20.70
2019-03-27T12:01:48.013Z,20.69
2019-03-27T12:02:47.004Z,20.70
2019-03-27T12:03:46.993Z,20.69
2019-03-27T12:04:46.991Z,20.69
2019-03-27T12:05:46.979Z,20.69
2019-03-27T12:06:47.000Z,20.67
2019-03-27T12:07:46.950Z,20.67
2019-03-27T12:08:46.943Z,20.67
2019-03-27T12:09:46.935Z,20.69
2019-03-27T12:10:46.919Z,20.67
2019-03-27T12:11:46.945Z,20.67
2019-03-27T12:12:48.397Z,20.66
2019-03-27T12:13:46.886Z,20.67
2019-03-27T12:14:46.906Z,20.67
2019-03-27T12:15:46.880Z,20.67
2019-03-27T12:16:49.826Z,20.67
2019-03-27T12:17:46.850Z,20.66
2019-03-27T12:18:46.844Z,20.66
2019-03-27T12:19:46.884Z,20.66
2019-03-27T12:20:58.074Z,20.66
2019-03-27T12:21:47.810Z,20.66
2019-03-27T12:22:57.131Z,20.66
2019-03-27T12:23:47.778Z,20.66
2019-03-27T12:24:46.803Z,20.63
2019-03-27T12:25:46.757Z,20.66
2019-03-27T12:26:46.749Z,20.65
2019-03-27T12:27:46.738Z,20.65
2019-03-27T12:28:46.757Z,20.63
2019-03-27T12:29:46.722Z,20.65
2019-03-27T12:30:46.754Z,20.65
2019-03-27T12:31:46.694Z,20.63
2019-03-27T12:32:46.680Z,20.63
2019-03-27T12:33:46.713Z,20.65
2019-03-27T12:34:46.676Z,20.65
2019-03-27T12:35:46.655Z,20.63
2019-03-27T12:36:46.649Z,20.62
2019-03-27T12:37:46.630Z,20.62
2019-03-27T12:38:46.659Z,20.62
2019-03-27T12:39:46.614Z,20.62
2019-03-27T12:40:46.604Z,20.60
2019-03-27T12:41:46.697Z,20.63
2019-03-27T12:42:46.578Z,20.60
2019-03-27T12:43:46.590Z,20.60
2019-03-27T12:44:46.555Z,20.60
2019-03-27T12:45:46.547Z,20.60
2019-03-27T12:46:46.535Z,20.60
2019-03-27T12:47:46.526Z,20.59
2019-03-27T12:48:46.549Z,20.59
2019-03-27T12:49:46.528Z,20.59
2019-03-27T12:50:46.527Z,20.60
2019-03-27T12:51:46.489Z,20.60
2019-03-27T12:52:46.472Z,20.59